Skip Navigation LinksHome page > Weather > Current weather Skip Navigation Links

Current Weather

Istanbul / Ataturk, Turkey

For information only: do not use for flight planning or navigation.
Latest weather
Observation time Sunday, May 26, 2019 6:50 PM +03
Local time Sunday, May 26, 2019 7:12 PM +03
Flight conditions Visual Meteorological Conditions
Winds
Wind direction Southwest (220°)
Winds variable from 150° to 240°
Wind speed 5 mph
Visibility 6.2 mi.
Sky condition
Ceiling unlimited
Sky clear
Temperature 75°F
Dewpoint 55°F
Altimeter 30.00 in.Hg
Derived measurements
Relative humidity 50%
Density altitude 1211 ft.
Remarks
Ceiling and visibility OK.
No significant changes expected in the next two hours.
METAR LTBA 261550Z 22004KT 150V240 CAVOK 24/13 Q1016 NOSIG RMK RWY17L 00000KT RWY05 20004KT 170V230 RWY23 20003KT 160V250

Settings

Location code

InnerDrive.Weather 4.0.6770.0 Release CLR 4.0.30319.42000
Copyright ©2018 Inner Drive Technology. All rights reserved. Portions Copyright ©1986-2018 David Braverman.

Find weather

Site navigation


Skip Navigation Links

Place info

Page info

PayPal - The safer, easier way to pay online!

Return home.

Copyright ©2019 Inner Drive Technology. Purveyors of fine, hand-crafted computer software. Page printed 2019-05-26T16:12:04 UTC.